Time;durP1;ratioP1;P1;durP2;ratioP2;P2;SDS_P1;SDS_P2;PMS_P1;PMS_P2;Temp;Humidity;BMP_temperature;BMP_pressure;BME280_temperature;BME280_humidity;BME280_pressure;Samples;Min_cycle;Max_cycle;Signal;HPM_P1;HPM_P2
2022/01/27 00:06:36;;;;;;;;;;;;;;;36.31;12.02;101400.97;5055333;28;675;-38
2022/01/27 00:12:03;;;;;;;;;;;;;;;36.21;12.40;101398.75;4992273;28;1191;-39
2022/01/27 00:14:28;;;;;;;;;;;;;;;36.29;12.40;101408.59;5041999;28;874;-39
2022/01/27 00:16:57;;;;;;;;;;;;;;;35.89;12.35;101409.88;5055362;28;1906;-38
2022/01/27 00:19:22;;;;;;;;;;;;;;;34.59;12.22;101402.88;5055798;28;1212;-39
2022/01/27 00:21:48;;;;;;;;;;;;;;;35.10;12.84;101412.03;5054958;28;805;-39
2022/01/27 00:24:13;;;;;;;;;;;;;;;34.85;13.27;101407.34;5055854;28;765;-38
2022/01/27 00:26:40;;;;;;;;;;;;;;;34.07;13.51;101407.28;5059253;28;1000;-38
2022/01/27 00:29:05;;;;;;;;;;;;;;;33.88;14.00;101406.28;5058714;28;876;-38
2022/01/27 00:31:30;;;;;;;;;;;;;;;34.48;13.54;101405.25;5059375;28;814;-38
2022/01/27 00:33:56;;;;;;;;;;;;;;;34.81;13.25;101400.69;5059061;28;868;-38
2022/01/27 00:36:21;;;;;;;;;;;;;;;34.69;13.24;101395.88;5058553;28;1906;-39
2022/01/27 00:38:46;;;;;;;;;;;;;;;34.63;13.70;101401.38;5059201;28;833;-39
2022/01/27 00:41:13;;;;;;;;;;;;;;;34.59;13.30;101400.13;5058869;28;851;-39
2022/01/27 00:43:39;;;;;;;;;;;;;;;33.78;13.79;101396.66;5058749;28;929;-38
2022/01/27 00:46:10;;;;;;;;;;;;;;;33.46;14.07;101401.94;5058944;28;921;-38
2022/01/27 00:48:35;;;;;;;;;;;;;;;33.33;14.54;101405.50;5058390;28;781;-39
2022/01/27 00:51:03;;;;;;;;;;;;;;;33.17;14.18;101404.00;5058729;28;800;-39
2022/01/27 00:55:56;;;;;;;;;;;;;;;33.64;13.83;101400.44;5058914;28;1910;-39
2022/01/27 01:01:01;;;;;;;;;;;;;;;33.66;13.42;101392.91;5057790;28;1061;-40
2022/01/27 01:03:37;;;;;;;;;;;;;;;33.62;13.59;101397.09;5058845;28;786;-40
2022/01/27 01:30:06;;;;;;;;;;;;;;;33.37;12.92;101384.13;5057525;28;821;-38
2022/01/27 01:32:43;;;;;;;;;;;;;;;33.40;12.96;101381.78;5058394;28;832;-39
2022/01/27 01:35:10;;;;;;;;;;;;;;;33.38;12.89;101378.44;5057831;28;856;-39
2022/01/27 01:37:40;;;;;;;;;;;;;;;33.37;13.30;101378.66;5057644;28;1898;-39
2022/01/27 01:40:15;;;;;;;;;;;;;;;33.34;13.20;101385.34;5046871;28;1039;-39
2022/01/27 01:42:41;;;;;;;;;;;;;;;33.19;12.99;101380.97;5052269;28;1318;-39
2022/01/27 01:45:08;;;;;;;;;;;;;;;33.45;12.86;101390.16;5057661;28;884;-40
2022/01/27 01:47:33;;;;;;;;;;;;;;;33.37;13.11;101384.13;5058187;28;746;-40
2022/01/27 01:49:59;;;;;;;;;;;;;;;33.39;13.06;101391.03;5039729;28;875;-40
2022/01/27 01:52:25;;;;;;;;;;;;;;;33.32;13.26;101388.28;5057034;28;779;-40
2022/01/27 01:54:50;;;;;;;;;;;;;;;33.24;13.19;101372.16;5057604;28;1088;-40
2022/01/27 01:57:15;;;;;;;;;;;;;;;33.27;12.81;101379.91;5057718;28;1973;-40
2022/01/27 01:59:41;;;;;;;;;;;;;;;33.34;13.08;101380.75;5057121;28;912;-40
2022/01/27 02:02:06;;;;;;;;;;;;;;;33.31;12.82;101374.88;5039483;28;745;-40
2022/01/27 02:04:31;;;;;;;;;;;;;;;33.17;13.16;101383.06;5056663;28;830;-40
2022/01/27 02:07:01;;;;;;;;;;;;;;;33.19;12.78;101374.66;5057011;28;857;-39
2022/01/27 02:20:06;;;;;;;;;;;;;;;33.26;12.76;101369.22;5056477;28;1210;-39
2022/01/27 02:22:32;;;;;;;;;;;;;;;33.10;13.15;101371.28;5057275;28;885;-39
2022/01/27 02:24:57;;;;;;;;;;;;;;;33.13;13.12;101370.91;5041842;28;1265;-38
2022/01/27 02:27:22;;;;;;;;;;;;;;;33.17;12.92;101369.41;5041029;28;1487;-38
2022/01/27 02:29:48;;;;;;;;;;;;;;;33.14;12.77;101372.56;5053985;28;888;-39
2022/01/27 02:32:14;;;;;;;;;;;;;;;33.14;12.85;101374.44;5055418;28;1162;-38
2022/01/27 02:34:39;;;;;;;;;;;;;;;33.09;12.69;101370.47;5057526;28;893;-38
2022/01/27 02:37:04;;;;;;;;;;;;;;;33.20;12.67;101365.44;5056707;28;1951;-37
2022/01/27 02:39:30;;;;;;;;;;;;;;;33.23;13.08;101370.47;5038625;28;1121;-39
2022/01/27 02:41:55;;;;;;;;;;;;;;;33.05;13.26;101366.44;5056325;28;803;-37
2022/01/27 02:44:21;;;;;;;;;;;;;;;33.07;12.93;101360.78;5056534;28;1645;-39
2022/01/27 02:46:46;;;;;;;;;;;;;;;33.16;13.05;101367.75;5041692;28;1337;-38
2022/01/27 02:49:12;;;;;;;;;;;;;;;33.11;12.83;101364.81;5019730;28;1405;-38
2022/01/27 02:51:37;;;;;;;;;;;;;;;33.12;12.87;101366.47;5056185;28;901;-38
2022/01/27 02:54:03;;;;;;;;;;;;;;;33.07;12.80;101366.25;5056471;28;993;-39
2022/01/27 02:56:28;;;;;;;;;;;;;;;33.02;13.06;101368.75;5056111;28;1961;-38
2022/01/27 02:58:53;;;;;;;;;;;;;;;33.02;13.12;101369.59;5055865;28;1025;-38
2022/01/27 03:01:20;;;;;;;;;;;;;;;32.98;12.70;101368.34;5056553;28;878;-38
2022/01/27 03:03:45;;;;;;;;;;;;;;;32.99;12.89;101372.75;5056251;28;850;-39
2022/01/27 03:06:10;;;;;;;;;;;;;;;33.06;13.00;101378.19;5055870;28;798;-38
2022/01/27 03:08:35;;;;;;;;;;;;;;;32.95;13.06;101385.13;5055664;28;790;-39
2022/01/27 03:11:06;;;;;;;;;;;;;;;33.03;13.15;101393.09;5056339;28;770;-39
2022/01/27 03:13:32;;;;;;;;;;;;;;;32.95;12.64;101368.78;5037336;28;915;-38
2022/01/27 03:15:57;;;;;;;;;;;;;;;32.91;13.08;101386.56;5056431;28;1894;-38
2022/01/27 03:18:22;;;;;;;;;;;;;;;32.90;13.10;101380.28;5056708;28;768;-38
2022/01/27 03:20:47;;;;;;;;;;;;;;;32.83;12.94;101399.34;5055126;28;1074;-39
2022/01/27 03:23:13;;;;;;;;;;;;;;;32.89;13.08;101402.28;5055896;28;837;-38
2022/01/27 03:25:38;;;;;;;;;;;;;;;32.76;13.25;101393.06;5056323;28;753;-38
2022/01/27 03:28:04;;;;;;;;;;;;;;;32.86;12.82;101407.13;5055313;28;801;-39
2022/01/27 03:30:29;;;;;;;;;;;;;;;32.79;13.24;101408.13;5056307;28;876;-39
2022/01/27 03:32:54;;;;;;;;;;;;;;;32.85;12.90;101402.69;5054765;28;887;-39
2022/01/27 03:35:20;;;;;;;;;;;;;;;32.79;12.83;101408.97;5055405;28;833;-39
2022/01/27 03:37:45;;;;;;;;;;;;;;;32.71;12.98;101410.03;5055951;28;1963;-39
2022/01/27 03:40:11;;;;;;;;;;;;;;;32.72;12.96;101410.84;5055807;28;838;-38
2022/01/27 03:42:45;;;;;;;;;;;;;;;32.76;13.19;101411.28;5055044;28;773;-38
2022/01/27 03:45:11;;;;;;;;;;;;;;;32.63;13.23;101415.66;5055688;28;825;-39
2022/01/27 03:47:36;;;;;;;;;;;;;;;32.60;13.00;101416.03;5055597;28;857;-39
2022/01/27 03:50:02;;;;;;;;;;;;;;;32.68;13.23;101420.47;5055304;28;810;-39
2022/01/27 03:52:27;;;;;;;;;;;;;;;32.60;12.96;101422.34;5055590;28;853;-40
2022/01/27 03:54:52;;;;;;;;;;;;;;;32.64;13.07;101430.09;5055602;28;1050;-41
2022/01/27 03:57:17;;;;;;;;;;;;;;;32.62;12.89;101430.28;5054471;28;1965;-39
2022/01/27 03:59:43;;;;;;;;;;;;;;;32.61;13.06;101431.34;5057682;28;769;-38
2022/01/27 04:02:08;;;;;;;;;;;;;;;32.77;13.19;101435.59;5059318;28;916;-40
2022/01/27 04:04:33;;;;;;;;;;;;;;;32.67;13.33;101438.69;5059531;28;832;-39
2022/01/27 04:06:59;;;;;;;;;;;;;;;32.61;13.26;101443.09;5053288;28;968;-38
2022/01/27 04:09:24;;;;;;;;;;;;;;;32.58;13.33;101442.66;5059718;28;948;-38
2022/01/27 04:11:50;;;;;;;;;;;;;;;32.67;13.02;101448.75;5059034;28;932;-40
2022/01/27 04:14:15;;;;;;;;;;;;;;;32.57;13.03;101447.25;5059559;28;903;-37
2022/01/27 04:16:40;;;;;;;;;;;;;;;32.58;13.17;101456.28;5059240;28;1898;-38
2022/01/27 04:19:06;;;;;;;;;;;;;;;32.59;13.08;101458.78;5059361;28;1048;-37
2022/01/27 04:21:31;;;;;;;;;;;;;;;32.55;13.41;101459.41;5059340;28;890;-38
2022/01/27 04:23:56;;;;;;;;;;;;;;;32.58;13.03;101467.16;5058811;28;1746;-38
2022/01/27 04:26:29;;;;;;;;;;;;;;;32.58;13.29;101461.72;5059193;28;861;-38
2022/01/27 04:28:54;;;;;;;;;;;;;;;32.55;13.41;101457.50;5059040;28;885;-38
2022/01/27 04:31:21;;;;;;;;;;;;;;;32.56;13.09;101469.25;5059357;28;785;-38
2022/01/27 04:33:46;;;;;;;;;;;;;;;32.44;13.53;101469.81;5059076;28;833;-38
2022/01/27 04:36:21;;;;;;;;;;;;;;;32.57;13.34;101473.66;5058930;28;1909;-38
2022/01/27 04:44:18;;;;;;;;;;;;;;;32.58;13.24;101478.88;5058803;28;864;-39
2022/01/27 04:46:50;;;;;;;;;;;;;;;32.29;13.28;101485.41;5059009;28;1004;-39
2022/01/27 04:49:16;;;;;;;;;;;;;;;31.61;12.82;101477.63;5058345;28;924;-38
2022/01/27 04:51:41;;;;;;;;;;;;;;;31.11;13.65;101483.81;5058504;28;887;-36
2022/01/27 04:54:19;;;;;;;;;;;;;;;30.65;14.14;101472.19;5057785;28;1392;-37
2022/01/27 04:56:45;;;;;;;;;;;;;;;30.42;14.52;101475.00;5059196;28;1902;-38
2022/01/27 04:59:19;;;;;;;;;;;;;;;29.65;14.75;101477.78;5058266;28;947;-37
2022/01/27 05:01:52;;;;;;;;;;;;;;;26.75;12.19;101466.34;5059004;28;881;-44
2022/01/27 05:04:20;;;;;;;;;;;;;;;25.25;12.90;101465.28;5057872;28;845;-42
2022/01/27 05:06:48;;;;;;;;;;;;;;;27.13;13.82;101465.97;5058444;28;793;-41
2022/01/27 05:09:13;;;;;;;;;;;;;;;27.22;15.42;101474.09;5058719;28;809;-42
2022/01/27 05:11:50;;;;;;;;;;;;;;;27.51;14.49;101470.91;5057260;28;817;-41
2022/01/27 05:14:19;;;;;;;;;;;;;;;29.23;13.04;101477.25;5057959;28;809;-41
2022/01/27 05:16:45;;;;;;;;;;;;;;;29.15;13.58;101478.97;5055091;28;1902;-41
2022/01/27 05:19:10;;;;;;;;;;;;;;;29.14;13.70;101479.16;5057731;28;1052;-40
2022/01/27 05:21:35;;;;;;;;;;;;;;;29.22;13.84;101479.09;5058295;28;837;-40
2022/01/27 05:24:01;;;;;;;;;;;;;;;29.39;14.02;101474.44;5058640;28;770;-40
2022/01/27 05:26:27;;;;;;;;;;;;;;;29.47;14.26;101489.78;5057653;28;808;-40
2022/01/27 05:28:52;;;;;;;;;;;;;;;29.56;14.21;101482.44;5057730;28;898;-39
2022/01/27 05:31:17;;;;;;;;;;;;;;;29.68;13.97;101482.84;5057934;28;850;-40
2022/01/27 05:33:42;;;;;;;;;;;;;;;29.63;14.28;101488.81;5057611;28;770;-40
2022/01/27 05:36:13;;;;;;;;;;;;;;;29.91;14.20;101496.38;5058156;28;1909;-39
2022/01/27 05:38:39;;;;;;;;;;;;;;;29.95;14.22;101496.84;5053289;28;886;-40
2022/01/27 05:41:05;;;;;;;;;;;;;;;30.11;14.19;101487.72;5056991;28;845;-40
2022/01/27 05:43:30;;;;;;;;;;;;;;;30.42;14.20;101496.72;5058314;28;843;-39
2022/01/27 05:45:55;;;;;;;;;;;;;;;30.29;14.53;101492.81;5057922;28;960;-35
2022/01/27 05:48:20;;;;;;;;;;;;;;;30.28;14.44;101496.53;5057416;28;774;-40
2022/01/27 05:50:46;;;;;;;;;;;;;;;30.77;14.03;101498.84;5057699;28;876;-34
2022/01/27 05:53:11;;;;;;;;;;;;;;;29.68;14.70;101490.97;5057348;28;894;-32
2022/01/27 05:55:37;;;;;;;;;;;;;;;29.54;15.04;101496.16;5057094;28;1124;-36
2022/01/27 05:58:02;;;;;;;;;;;;;;;29.49;15.19;101501.28;5057850;28;1965;-36
2022/01/27 06:00:27;;;;;;;;;;;;;;;29.51;14.51;101498.41;5057700;28;1062;-31
2022/01/27 06:02:53;;;;;;;;;;;;;;;29.18;14.99;101500.28;5056966;28;838;-33
2022/01/27 06:05:19;;;;;;;;;;;;;;;29.18;15.28;101505.72;5057825;28;828;-38
2022/01/27 06:07:44;;;;;;;;;;;;;;;29.29;15.43;101507.19;5056569;28;930;-33
2022/01/27 06:10:09;;;;;;;;;;;;;;;29.26;15.45;101506.69;5056750;28;841;-35
2022/01/27 06:12:43;;;;;;;;;;;;;;;29.26;15.31;101512.13;5056998;28;865;-36
2022/01/27 06:15:08;;;;;;;;;;;;;;;29.31;15.78;101513.25;5056955;28;809;-38
2022/01/27 06:17:34;;;;;;;;;;;;;;;29.41;15.35;101507.59;5057044;28;1898;-38
2022/01/27 06:20:01;;;;;;;;;;;;;;;29.49;15.41;101519.41;5056613;28;1049;-37
2022/01/27 06:22:27;;;;;;;;;;;;;;;29.45;15.35;101513.50;5057042;28;1850;-37
2022/01/27 06:24:52;;;;;;;;;;;;;;;29.49;15.51;101508.56;5056346;28;881;-38
2022/01/27 06:27:17;;;;;;;;;;;;;;;29.61;15.50;101503.59;5057110;28;859;-36
2022/01/27 06:29:43;;;;;;;;;;;;;;;29.52;15.44;101510.91;5055997;28;960;-33
2022/01/27 06:32:08;;;;;;;;;;;;;;;29.56;15.40;101513.06;5055853;28;869;-42
2022/01/27 06:34:33;;;;;;;;;;;;;;;29.58;15.53;101512.88;5056653;28;1465;-42
2022/01/27 06:36:59;;;;;;;;;;;;;;;29.69;15.27;101514.38;5056209;28;1902;-42
2022/01/27 06:39:24;;;;;;;;;;;;;;;29.65;15.44;101516.59;5056210;28;1002;-42
2022/01/27 06:41:49;;;;;;;;;;;;;;;29.66;15.50;101525.59;5056667;28;890;-43
2022/01/27 06:44:14;;;;;;;;;;;;;;;29.59;15.66;101522.75;5055882;28;832;-41
2022/01/27 06:46:40;;;;;;;;;;;;;;;29.52;15.37;101517.19;5056110;28;897;-41
2022/01/27 06:49:05;;;;;;;;;;;;;;;29.66;15.81;101520.16;5056378;28;870;-43
2022/01/27 06:51:31;;;;;;;;;;;;;;;29.63;16.10;101528.66;5055860;28;857;-42
2022/01/27 06:53:57;;;;;;;;;;;;;;;29.59;16.08;101525.47;5056047;28;966;-42
2022/01/27 06:56:22;;;;;;;;;;;;;;;29.67;16.05;101521.84;5056106;28;1890;-42
2022/01/27 06:58:47;;;;;;;;;;;;;;;29.68;15.95;101521.66;5055858;28;825;-45
2022/01/27 07:01:13;;;;;;;;;;;;;;;29.72;15.80;101534.84;5055557;28;1009;-43
2022/01/27 07:03:38;;;;;;;;;;;;;;;29.68;15.97;101528.94;5056132;28;884;-45
2022/01/27 07:06:03;;;;;;;;;;;;;;;29.74;16.04;101539.06;5056169;28;834;-37
2022/01/27 07:08:29;;;;;;;;;;;;;;;29.85;16.13;101534.22;5054980;28;974;-40
2022/01/27 07:10:54;;;;;;;;;;;;;;;29.83;16.36;101528.97;5054783;28;1239;-41
2022/01/27 07:13:19;;;;;;;;;;;;;;;29.94;16.10;101530.44;5055844;28;1105;-44
2022/01/27 07:15:45;;;;;;;;;;;;;;;30.14;15.69;101532.63;5053814;28;1611;-40
2022/01/27 07:18:10;;;;;;;;;;;;;;;29.88;15.47;101520.31;5054886;28;1897;-40
2022/01/27 07:20:36;;;;;;;;;;;;;;;29.80;15.71;101540.19;5055865;28;1228;-43
2022/01/27 07:23:01;;;;;;;;;;;;;;;29.84;15.68;101543.41;5055504;28;897;-45
2022/01/27 07:25:27;;;;;;;;;;;;;;;29.53;15.80;101532.41;5055588;28;804;-38
2022/01/27 07:27:52;;;;;;;;;;;;;;;29.45;16.14;101537.88;5055648;28;979;-38
2022/01/27 07:30:17;;;;;;;;;;;;;;;28.74;16.87;101547.72;5056102;28;861;-38
2022/01/27 07:32:42;;;;;;;;;;;;;;;28.65;17.08;101546.91;5055249;28;766;-37
2022/01/27 07:35:08;;;;;;;;;;;;;;;28.75;16.72;101543.97;5055195;28;873;-39
2022/01/27 07:37:33;;;;;;;;;;;;;;;28.93;16.72;101540.19;5055399;28;1981;-38
2022/01/27 07:39:59;;;;;;;;;;;;;;;29.02;16.67;101541.88;5055139;28;989;-38
2022/01/27 07:42:24;;;;;;;;;;;;;;;29.13;16.53;101550.63;5054976;28;1299;-39
2022/01/27 07:44:49;;;;;;;;;;;;;;;29.25;16.50;101554.63;5055009;28;1192;-38
2022/01/27 07:47:14;;;;;;;;;;;;;;;29.28;16.33;101550.72;5054953;28;1049;-38
2022/01/27 07:49:40;;;;;;;;;;;;;;;29.41;16.09;101552.84;5055417;28;785;-39
2022/01/27 07:52:05;;;;;;;;;;;;;;;29.43;16.33;101553.47;5055718;28;825;-38
2022/01/27 07:54:30;;;;;;;;;;;;;;;29.52;16.24;101565.13;5054809;28;974;-39
2022/01/27 07:56:56;;;;;;;;;;;;;;;29.55;16.05;101568.31;5055277;28;1897;-38
2022/01/27 07:59:21;;;;;;;;;;;;;;;29.52;16.22;101559.69;5055598;28;983;-38
2022/01/27 08:01:46;;;;;;;;;;;;;;;29.57;15.82;101555.44;5054540;28;861;-39
2022/01/27 08:04:12;;;;;;;;;;;;;;;29.64;15.96;101565.59;5055645;28;946;-38
2022/01/27 08:06:37;;;;;;;;;;;;;;;29.82;15.93;101566.13;5055331;28;830;-39
2022/01/27 08:09:03;;;;;;;;;;;;;;;29.89;15.95;101568.97;5055447;28;728;-39
2022/01/27 08:11:28;;;;;;;;;;;;;;;29.87;15.85;101564.72;5055570;28;997;-38
2022/01/27 08:13:53;;;;;;;;;;;;;;;29.97;15.95;101575.31;5054707;28;888;-38
2022/01/27 08:16:19;;;;;;;;;;;;;;;30.07;15.66;101559.66;5055480;28;1968;-38
2022/01/27 08:18:44;;;;;;;;;;;;;;;30.06;15.75;101568.81;5055268;28;892;-39
2022/01/27 08:21:09;;;;;;;;;;;;;;;30.08;15.91;101571.34;5055565;28;1275;-39
2022/01/27 08:23:35;;;;;;;;;;;;;;;30.09;16.03;101568.44;5055204;28;762;-39
2022/01/27 08:26:05;;;;;;;;;;;;;;;30.12;15.86;101576.22;5055275;28;933;-38
2022/01/27 08:28:49;;;;;;;;;;;;;;;30.15;15.95;101567.72;5049027;28;1191;-38
2022/01/27 08:31:15;;;;;;;;;;;;;;;30.15;15.97;101573.13;5050883;28;842;-39
2022/01/27 08:33:41;;;;;;;;;;;;;;;30.13;16.15;101579.78;5054958;28;830;-39
2022/01/27 08:36:06;;;;;;;;;;;;;;;30.13;15.47;101563.50;5053882;28;1910;-39
2022/01/27 08:38:31;;;;;;;;;;;;;;;30.08;15.09;101571.34;5053401;28;754;-38
2022/01/27 08:40:59;;;;;;;;;;;;;;;29.98;14.77;101577.03;5054933;28;732;-38
2022/01/27 08:43:24;;;;;;;;;;;;;;;29.90;14.41;101576.06;5055216;28;794;-37
2022/01/27 08:45:50;;;;;;;;;;;;;;;29.89;14.36;101577.09;5055019;28;769;-37
2022/01/27 08:48:18;;;;;;;;;;;;;;;29.85;14.65;101574.91;5058536;28;857;-38
2022/01/27 08:50:50;;;;;;;;;;;;;;;29.89;14.92;101576.25;5058228;28;817;-38
2022/01/27 08:53:15;;;;;;;;;;;;;;;29.96;14.70;101577.22;5058069;28;884;-41
2022/01/27 08:55:44;;;;;;;;;;;;;;;29.91;14.69;101572.31;5057779;28;1109;-38
2022/01/27 08:58:10;;;;;;;;;;;;;;;30.00;14.79;101577.66;5057765;28;1976;-38
2022/01/27 09:00:35;;;;;;;;;;;;;;;29.95;15.11;101583.66;5057578;28;1101;-38
2022/01/27 09:03:00;;;;;;;;;;;;;;;29.90;15.17;101581.50;5057934;28;904;-37
2022/01/27 09:05:26;;;;;;;;;;;;;;;29.93;15.23;101580.25;5057107;28;817;-36
2022/01/27 09:07:55;;;;;;;;;;;;;;;29.92;15.25;101578.59;5058561;28;797;-37
2022/01/27 09:10:20;;;;;;;;;;;;;;;29.98;15.17;101579.75;5058159;28;845;-38
2022/01/27 09:12:46;;;;;;;;;;;;;;;29.96;15.05;101584.50;5057963;28;828;-38
2022/01/27 09:15:11;;;;;;;;;;;;;;;29.95;15.38;101575.50;5057856;28;864;-36
2022/01/27 09:17:39;;;;;;;;;;;;;;;29.92;15.21;101584.88;5057932;28;1964;-38
2022/01/27 09:20:05;;;;;;;;;;;;;;;29.96;15.23;101587.22;5057739;28;1037;-37
2022/01/27 09:22:31;;;;;;;;;;;;;;;29.91;15.01;101583.16;5058368;28;844;-38
2022/01/27 09:24:59;;;;;;;;;;;;;;;30.02;14.55;101586.47;5058501;28;795;-37
2022/01/27 09:27:25;;;;;;;;;;;;;;;29.90;14.24;101577.91;5058089;28;821;-37
2022/01/27 09:29:51;;;;;;;;;;;;;;;29.95;14.16;101578.22;5056266;28;1347;-38
2022/01/27 09:32:16;;;;;;;;;;;;;;;30.09;14.07;101571.16;5056480;28;1360;-38
2022/01/27 09:34:42;;;;;;;;;;;;;;;30.20;14.03;101561.75;5057563;28;1049;-37
2022/01/27 09:37:07;;;;;;;;;;;;;;;30.19;14.37;101558.19;5061342;28;1902;-38
2022/01/27 09:39:33;;;;;;;;;;;;;;;30.19;14.63;101558.19;5064572;28;1057;-38
2022/01/27 09:41:59;;;;;;;;;;;;;;;30.22;14.55;101550.72;5056755;28;930;-38
2022/01/27 09:44:28;;;;;;;;;;;;;;;30.19;14.55;101546.47;5056901;28;881;-38
2022/01/27 09:46:56;;;;;;;;;;;;;;;30.29;14.67;101546.25;5057689;28;861;-38
2022/01/27 09:49:30;;;;;;;;;;;;;;;30.37;14.77;101531.72;5058164;28;802;-38
2022/01/27 09:51:56;;;;;;;;;;;;;;;30.75;14.44;101537.06;5040715;28;805;-38
2022/01/27 09:54:21;;;;;;;;;;;;;;;30.81;14.19;101521.06;5057704;28;1021;-38
2022/01/27 09:56:46;;;;;;;;;;;;;;;30.72;14.48;101531.16;5056965;28;1910;-38
2022/01/27 09:59:12;;;;;;;;;;;;;;;30.67;14.54;101519.00;5057379;28;822;-38
2022/01/27 10:01:37;;;;;;;;;;;;;;;31.02;14.31;101514.84;5057565;28;782;-38
2022/01/27 10:04:02;;;;;;;;;;;;;;;30.60;14.74;101511.78;5057501;28;749;-38
2022/01/27 10:06:30;;;;;;;;;;;;;;;30.37;14.79;101507.31;5056956;28;794;-38
2022/01/27 10:09:14;;;;;;;;;;;;;;;30.10;15.08;101515.88;5057177;28;841;-38
2022/01/27 10:11:40;;;;;;;;;;;;;;;29.91;15.54;101507.22;5057177;28;791;-38
2022/01/27 10:14:17;;;;;;;;;;;;;;;29.84;15.17;101510.84;5055375;28;1227;-38
2022/01/27 10:16:43;;;;;;;;;;;;;;;29.99;14.47;101508.19;5057104;28;1902;-38
2022/01/27 10:19:09;;;;;;;;;;;;;;;30.26;14.55;101503.19;5057122;28;1095;-37
2022/01/27 10:21:35;;;;;;;;;;;;;;;30.40;14.42;101496.06;5056881;28;830;-38
2022/01/27 10:24:19;;;;;;;;;;;;;;;30.40;14.12;101490.63;5057065;28;782;-36
2022/01/27 10:26:52;;;;;;;;;;;;;;;30.63;14.25;101495.97;5057184;28;811;-38
2022/01/27 10:29:29;;;;;;;;;;;;;;;30.67;14.34;101500.00;5057130;28;818;-38
2022/01/27 10:32:04;;;;;;;;;;;;;;;31.09;13.65;101494.03;5056827;28;993;-38
2022/01/27 10:34:30;;;;;;;;;;;;;;;30.84;13.83;101486.22;5056796;28;761;-38
2022/01/27 10:36:55;;;;;;;;;;;;;;;30.67;13.81;101480.13;5038708;28;1891;-38
2022/01/27 10:39:20;;;;;;;;;;;;;;;30.79;14.03;101477.78;5057077;28;1047;-37
2022/01/27 10:41:56;;;;;;;;;;;;;;;30.79;14.03;101478.63;5056978;28;850;-37
2022/01/27 10:44:23;;;;;;;;;;;;;;;30.60;13.81;101476.47;5055894;28;951;-37
2022/01/27 10:47:05;;;;;;;;;;;;;;;30.25;13.65;101486.06;5056451;28;836;-38
2022/01/27 10:49:32;;;;;;;;;;;;;;;30.65;12.65;101474.91;5056363;28;1330;-37
2022/01/27 10:51:57;;;;;;;;;;;;;;;30.38;13.18;101473.72;5056227;28;833;-40
2022/01/27 10:54:36;;;;;;;;;;;;;;;30.41;12.63;101467.91;5056505;28;1013;-37
2022/01/27 10:57:06;;;;;;;;;;;;;;;30.36;12.74;101468.47;5056629;28;1890;-35
2022/01/27 10:59:33;;;;;;;;;;;;;;;30.08;12.70;101462.81;5055851;28;884;-36
2022/01/27 11:01:58;;;;;;;;;;;;;;;30.06;12.83;101442.13;5056283;28;985;-37
2022/01/27 11:04:31;;;;;;;;;;;;;;;30.23;12.63;101447.41;5055865;28;1231;-38
2022/01/27 11:06:58;;;;;;;;;;;;;;;30.40;12.73;101455.34;5054459;28;1184;-38
2022/01/27 11:09:23;;;;;;;;;;;;;;;29.87;12.90;101457.09;5052847;28;1148;-38
2022/01/27 11:11:49;;;;;;;;;;;;;;;29.74;12.36;101454.16;5056023;28;1263;-37
2022/01/27 11:14:15;;;;;;;;;;;;;;;29.44;12.80;101442.22;5038313;28;872;-38
2022/01/27 11:16:43;;;;;;;;;;;;;;;29.46;12.70;101442.84;5055457;28;2012;-36
2022/01/27 11:19:20;;;;;;;;;;;;;;;29.49;12.46;101432.66;5055698;28;1263;-35
2022/01/27 11:21:50;;;;;;;;;;;;;;;29.77;12.49;101440.22;5055327;28;750;-35
2022/01/27 11:25:05;;;;;;;;;;;;;;;29.72;12.34;101434.53;5055803;28;853;-34
2022/01/27 11:27:05;;;;;;;;;;;;;;;29.77;13.03;101424.81;5055237;28;1571;-38
2022/01/27 11:29:32;;;;;;;;;;;;;;;29.82;13.03;101422.41;5053001;28;1565;-38
2022/01/27 11:32:04;;;;;;;;;;;;;;;29.54;13.85;101422.13;5029246;28;1101;-38
2022/01/27 11:34:48;;;;;;;;;;;;;;;30.34;13.30;101415.41;5035326;28;890;-38
2022/01/27 11:37:18;;;;;;;;;;;;;;;30.63;13.19;101411.78;5049348;28;1910;-38
2022/01/27 11:39:53;;;;;;;;;;;;;;;30.45;13.28;101412.19;5055359;28;811;-37
2022/01/27 11:42:19;;;;;;;;;;;;;;;30.34;13.47;101394.53;5055514;28;993;-37
2022/01/27 11:44:45;;;;;;;;;;;;;;;30.24;13.53;101400.25;5055223;28;1239;-37
2022/01/27 11:47:17;;;;;;;;;;;;;;;30.18;13.93;101400.97;5037642;28;1151;-37
2022/01/27 11:49:45;;;;;;;;;;;;;;;30.00;14.19;101391.34;5054214;28;1274;-37
2022/01/27 11:52:24;;;;;;;;;;;;;;;29.84;14.33;101389.66;5055120;28;1235;-37
2022/01/27 11:54:49;;;;;;;;;;;;;;;30.02;14.07;101391.16;5055222;28;1001;-37
2022/01/27 11:57:53;;;;;;;;;;;;;;;29.96;14.16;101387.34;5055549;28;1902;-38
2022/01/27 12:00:19;;;;;;;;;;;;;;;29.85;13.69;101377.78;4993557;28;1169;-38
2022/01/27 12:02:57;;;;;;;;;;;;;;;29.89;12.99;101376.38;4994055;28;1194;-37
2022/01/27 12:05:22;;;;;;;;;;;;;;;30.03;12.94;101368.44;5025940;28;889;-37
2022/01/27 12:08:06;;;;;;;;;;;;;;;30.10;12.65;101360.38;5037558;28;766;-38
2022/01/27 12:10:49;;;;;;;;;;;;;;;30.22;12.69;101364.31;5055271;28;895;-37
2022/01/27 12:19:03;;;;;;;;;;;;;;;30.18;12.45;101352.97;5055386;28;825;-36
2022/01/27 12:21:38;;;;;;;;;;;;;;;30.10;12.40;101352.22;5058892;28;799;-37
2022/01/27 12:24:23;;;;;;;;;;;;;;;30.44;12.71;101353.53;5059219;28;820;-34
2022/01/27 12:26:55;;;;;;;;;;;;;;;30.68;12.72;101352.31;5058905;28;1163;-35
2022/01/27 12:29:22;;;;;;;;;;;;;;;30.58;12.95;101354.50;5058769;28;738;-35
2022/01/27 12:31:47;;;;;;;;;;;;;;;30.49;13.32;101344.78;5058807;28;880;-36
2022/01/27 12:34:12;;;;;;;;;;;;;;;30.38;13.46;101343.44;5058862;28;868;-36
2022/01/27 12:36:38;;;;;;;;;;;;;;;30.50;13.55;101347.31;5058629;28;1898;-35
2022/01/27 12:39:03;;;;;;;;;;;;;;;30.36;14.07;101349.06;5041029;28;806;-36
2022/01/27 12:41:35;;;;;;;;;;;;;;;30.25;14.23;101344.94;5058218;28;880;-34
2022/01/27 12:44:09;;;;;;;;;;;;;;;30.35;14.76;101343.78;5058617;28;806;-35
2022/01/27 12:46:35;;;;;;;;;;;;;;;30.15;15.02;101339.78;5059154;28;964;-35
2022/01/27 12:49:02;;;;;;;;;;;;;;;30.24;15.16;101337.00;5040630;28;983;-34
2022/01/27 12:51:27;;;;;;;;;;;;;;;30.18;15.51;101335.84;5058504;28;817;-36
2022/01/27 12:54:02;;;;;;;;;;;;;;;30.10;15.77;101330.53;5058739;28;811;-36
2022/01/27 12:56:27;;;;;;;;;;;;;;;30.02;16.54;101331.47;5058188;28;1890;-32
2022/01/27 12:58:52;;;;;;;;;;;;;;;30.09;16.71;101335.13;5057843;28;777;-33
2022/01/27 13:01:19;;;;;;;;;;;;;;;30.01;17.23;101344.19;5058801;28;818;-36
2022/01/27 13:04:00;;;;;;;;;;;;;;;30.14;16.83;101339.97;5058806;28;742;-33
2022/01/27 13:06:29;;;;;;;;;;;;;;;30.28;16.85;101349.16;5057198;28;986;-42
2022/01/27 13:09:09;;;;;;;;;;;;;;;30.35;16.57;101344.63;5057696;28;1034;-42
2022/01/27 13:11:34;;;;;;;;;;;;;;;30.61;16.30;101347.84;5056868;28;1057;-42
2022/01/27 13:14:06;;;;;;;;;;;;;;;30.82;16.21;101347.03;5056749;28;1085;-42
2022/01/27 13:16:39;;;;;;;;;;;;;;;30.83;16.26;101351.44;5058087;28;1944;-42
2022/01/27 13:19:10;;;;;;;;;;;;;;;30.84;15.82;101344.13;5054857;28;1258;-42
2022/01/27 13:21:37;;;;;;;;;;;;;;;30.20;16.36;101344.66;5055591;28;1049;-42
2022/01/27 13:24:08;;;;;;;;;;;;;;;29.95;16.71;101342.22;5058079;28;798;-42
2022/01/27 13:26:33;;;;;;;;;;;;;;;29.63;17.03;101341.59;5058321;28;817;-43
2022/01/27 13:28:58;;;;;;;;;;;;;;;29.67;17.59;101335.63;5057509;28;828;-47
2022/01/27 13:31:25;;;;;;;;;;;;;;;29.82;17.14;101335.63;5052178;28;798;-44
2022/01/27 13:33:50;;;;;;;;;;;;;;;29.82;17.38;101337.47;5039566;28;962;-44
2022/01/27 13:36:19;;;;;;;;;;;;;;;29.95;17.23;101339.53;5039430;28;1898;-46
2022/01/27 13:39:01;;;;;;;;;;;;;;;30.07;16.89;101350.75;5051785;28;889;-43
2022/01/27 13:41:28;;;;;;;;;;;;;;;30.23;16.72;101340.75;5056617;28;1322;-42
2022/01/27 13:44:13;;;;;;;;;;;;;;;30.22;16.69;101344.47;5057676;28;770;-45
2022/01/27 13:46:41;;;;;;;;;;;;;;;30.15;16.14;101344.38;5056867;28;1383;-44
2022/01/27 13:49:25;;;;;;;;;;;;;;;30.44;16.35;101342.66;5057138;28;821;-38
2022/01/27 13:51:54;;;;;;;;;;;;;;;30.49;16.24;101340.22;5057316;28;943;-42
2022/01/27 13:54:23;;;;;;;;;;;;;;;30.64;16.20;101345.59;5050996;28;970;-42